PWSweather.com
Personal Weather Stations
Station Observations
ACURITE34
Igara Berio, San SebastianES 20018

Igara BerioSan SebastianES 20018

Lat: 43.304, Lon: -2.016

Elevation: 177

Station Type: Davis Vantage Pro2 Plus autofan

Latest ConditionsUpdated 9:48:44 PM GMT+01:01 Wednesday, Apr 24, 2019
Currently Today's Max Today's Min Today's Average
Temperature 57.4°F14.1°C 63.5°F17.5°C 45.5°F7.5°C 55.1°F12.8°C
Dew Point 46.9°F8.3°C 51.1°F10.6°C 37.6°F3.1°C 43.7°F6.5°C
Winds 4.0 mph S6.4 kmh S 21.0 mph -33.8 kmh - - 8.5 mph 13.7 kmh
Wind Gusts 4.0 mph6.4 kmh 45.0 mph72.4 kmh - -
Humidity 68% 94% 45% 68%
Pressure 29.54 in1000.3 mb 29.56 in1001.0 mb 29.47 in998.0 mb -
Precipitation - 0.24 in6.1 mm - -
Hour Temp Dew Point Humidity Winds Wind Gusts Pressure Precip Precip Rate Daily Precip Total
09:48 PM 57.4°F14.1°C 46.9°F8.3°C 68% 4.0 mph S6.4 kmh S 4.0 mph6.4 kmh 29.54 in1000.3 mb 0.00 in0.0 mm 0.00 in0.0 mm 0.24 in6.1 mm
09:42 PM 57.7°F14.3°C 46.9°F8.3°C 67% 4.9 mph SW7.9 kmh SW 11.0 mph17.7 kmh 29.54 in1000.3 mb 0.00 in0.0 mm 0.00 in0.0 mm 0.24 in6.1 mm
09:37 PM 57.7°F14.3°C 47.3°F8.5°C 68% 4.0 mph SE6.4 kmh SE 4.9 mph7.9 kmh 29.54 in1000.3 mb 0.00 in0.0 mm 0.00 in0.0 mm 0.24 in6.1 mm
09:31 PM 58.1°F14.5°C 46.8°F8.2°C 66% 6.0 mph SW9.7 kmh SW 15.0 mph24.1 kmh 29.54 in1000.3 mb 0.00 in0.0 mm 0.00 in0.0 mm 0.24 in6.1 mm
09:25 PM 58.3°F14.6°C 46.9°F8.3°C 66% 8.9 mph WSW14.3 kmh WSW 10.1 mph16.3 kmh 29.54 in1000.3 mb 0.00 in0.0 mm 0.00 in0.0 mm 0.24 in6.1 mm
09:20 PM 58.3°F14.6°C 46.6°F8.1°C 65% 8.9 mph SSW14.3 kmh SSW 17.0 mph27.4 kmh 29.54 in1000.3 mb 0.00 in0.0 mm 0.00 in0.0 mm 0.24 in6.1 mm
09:14 PM 57.9°F14.4°C 46.6°F8.1°C 66% 8.9 mph SSE14.3 kmh SSE 11.0 mph17.7 kmh 29.54 in1000.3 mb 0.00 in0.0 mm 0.00 in0.0 mm 0.24 in6.1 mm
09:09 PM 57.7°F14.3°C 46.9°F8.3°C 67% 8.1 mph SSW13.0 kmh SSW 21.0 mph33.8 kmh 29.53 in1000.0 mb 0.00 in0.0 mm 0.00 in0.0 mm 0.24 in6.1 mm
09:03 PM 57.4°F14.1°C 47.3°F8.5°C 69% 8.9 mph S14.3 kmh S 8.9 mph14.3 kmh 29.54 in1000.3 mb 0.00 in0.0 mm 0.00 in0.0 mm 0.24 in6.1 mm
08:58 PM 57.2°F14.0°C 47.1°F8.4°C 69% 8.1 mph S13.0 kmh S 19.0 mph30.6 kmh 29.54 in1000.3 mb 0.00 in0.0 mm 0.00 in0.0 mm 0.24 in6.1 mm
08:52 PM 56.8°F13.8°C 47.5°F8.6°C 71% 6.9 mph S11.1 kmh S 8.9 mph14.3 kmh 29.54 in1000.3 mb 0.00 in0.0 mm 0.00 in0.0 mm 0.24 in6.1 mm
08:47 PM 56.8°F13.8°C 47.8°F8.8°C 72% 8.1 mph SW13.0 kmh SW 15.0 mph24.1 kmh 29.53 in1000.0 mb 0.01 in0.3 mm 0.00 in0.0 mm 0.24 in6.1 mm
08:41 PM 56.8°F13.8°C 48.2°F9.0°C 73% 8.1 mph WSW13.0 kmh WSW 8.1 mph13.0 kmh 29.53 in1000.0 mb 0.02 in0.5 mm 0.00 in0.0 mm 0.24 in6.1 mm
08:36 PM 56.7°F13.7°C 48.0°F8.9°C 73% 8.9 mph W14.3 kmh W 21.0 mph33.8 kmh 29.53 in1000.0 mb 0.02 in0.5 mm 0.00 in0.0 mm 0.24 in6.1 mm
08:30 PM 56.3°F13.5°C 48.2°F9.0°C 74% 11.0 mph WSW17.7 kmh WSW 13.0 mph20.9 kmh 29.52 in999.7 mb 0.02 in0.5 mm 0.00 in0.0 mm 0.24 in6.1 mm
08:25 PM 55.9°F13.3°C 48.9°F9.4°C 77% 12.1 mph S19.5 kmh S 25.0 mph40.2 kmh 29.52 in999.7 mb 0.02 in0.5 mm 0.00 in0.0 mm 0.24 in6.1 mm
08:19 PM 55.8°F13.2°C 48.9°F9.4°C 78% 15.0 mph SW24.1 kmh SW 14.1 mph22.7 kmh 29.50 in999.0 mb 0.06 in1.5 mm 0.00 in0.0 mm 0.24 in6.1 mm
08:14 PM 55.6°F13.1°C 48.9°F9.4°C 78% 16.1 mph S25.9 kmh S 28.0 mph45.1 kmh 29.48 in998.3 mb 0.09 in2.3 mm 0.00 in0.0 mm 0.24 in6.1 mm
08:09 PM 55.0°F12.8°C 49.3°F9.6°C 81% 14.1 mph SSW22.7 kmh SSW 23.0 mph37.0 kmh 29.48 in998.3 mb 0.10 in2.5 mm 0.00 in0.0 mm 0.24 in6.1 mm
08:03 PM 54.7°F12.6°C 49.3°F9.6°C 82% 14.1 mph SSW22.7 kmh SSW 28.0 mph45.1 kmh 29.49 in998.6 mb 0.13 in3.3 mm 0.00 in0.0 mm 0.24 in6.1 mm
07:58 PM 54.5°F12.5°C 49.8°F9.9°C 84% 12.1 mph SSE19.5 kmh SSE 24.0 mph38.6 kmh 29.48 in998.3 mb 0.15 in3.8 mm 0.00 in0.0 mm 0.24 in6.1 mm
07:52 PM 54.9°F12.7°C 50.2°F10.1°C 84% 14.1 mph SE22.7 kmh SE 15.0 mph24.1 kmh 29.52 in999.7 mb 0.18 in4.6 mm 0.00 in0.0 mm 0.24 in6.1 mm
07:47 PM 55.0°F12.8°C 49.6°F9.8°C 82% 12.1 mph S19.5 kmh S 33.0 mph53.1 kmh 29.53 in1000.0 mb 0.19 in4.8 mm 0.10 in2.5 mm 0.24 in6.1 mm
07:41 PM 55.2°F12.9°C 49.5°F9.7°C 81% 10.1 mph S16.3 kmh S 24.0 mph38.6 kmh 29.52 in999.7 mb 0.18 in4.6 mm 0.00 in0.0 mm 0.23 in5.8 mm
07:35 PM 55.2°F12.9°C 49.8°F9.9°C 82% 8.9 mph S14.3 kmh S 12.1 mph19.5 kmh 29.52 in999.7 mb 0.18 in4.6 mm 0.00 in0.0 mm 0.23 in5.8 mm
07:30 PM 54.9°F12.7°C 50.4°F10.2°C 85% 4.9 mph S7.9 kmh S 16.0 mph25.7 kmh 29.52 in999.7 mb 0.18 in4.6 mm 0.10 in2.5 mm 0.23 in5.8 mm
07:24 PM 54.9°F12.7°C 51.1°F10.6°C 87% 4.9 mph S7.9 kmh S 6.9 mph11.1 kmh 29.53 in1000.0 mb 0.17 in4.3 mm 0.48 in12.2 mm 0.21 in5.3 mm
07:19 PM 55.0°F12.8°C 50.5°F10.3°C 85% 4.9 mph SW7.9 kmh SW 13.0 mph20.9 kmh 29.54 in1000.3 mb 0.13 in3.3 mm 0.30 in7.6 mm 0.18 in4.6 mm
07:13 PM 55.2°F12.9°C 50.5°F10.3°C 84% 4.9 mph WSW7.9 kmh WSW 6.0 mph9.7 kmh 29.54 in1000.3 mb 0.10 in2.5 mm 0.12 in3.0 mm 0.15 in3.8 mm
07:08 PM 55.8°F13.2°C 50.0°F10.0°C 81% 6.0 mph SSW9.7 kmh SSW 14.0 mph22.5 kmh 29.52 in999.7 mb 0.09 in2.3 mm 0.30 in7.6 mm 0.13 in3.3 mm
07:02 PM 56.8°F13.8°C 49.3°F9.6°C 76% 8.9 mph SSW14.3 kmh SSW 6.9 mph11.1 kmh 29.51 in999.3 mb 0.06 in1.5 mm 0.03 in0.8 mm 0.11 in2.8 mm
06:57 PM 58.3°F14.6°C 49.3°F9.6°C 72% 12.1 mph SSW19.5 kmh SSW 20.0 mph32.2 kmh 29.51 in999.3 mb 0.03 in0.8 mm 0.20 in5.1 mm 0.08 in2.0 mm
06:51 PM 59.5°F15.3°C 47.8°F8.8°C 65% 12.1 mph SSW19.5 kmh SSW 16.1 mph25.9 kmh 29.50 in999.0 mb 0.01 in0.3 mm 0.12 in3.0 mm 0.06 in1.5 mm
06:46 PM 60.1°F15.6°C 46.6°F8.1°C 61% 13.0 mph SSW20.9 kmh SSW 28.0 mph45.1 kmh 29.49 in998.6 mb 0.00 in0.0 mm 0.00 in0.0 mm 0.05 in1.3 mm
06:40 PM 59.9°F15.5°C 46.0°F7.8°C 60% 12.1 mph SSW19.5 kmh SSW 22.0 mph35.4 kmh 29.48 in998.3 mb 0.00 in0.0 mm 0.00 in0.0 mm 0.05 in1.3 mm
06:35 PM 59.7°F15.4°C 46.2°F7.9°C 61% 11.0 mph S17.7 kmh S 18.0 mph29.0 kmh 29.48 in998.3 mb 0.00 in0.0 mm 0.00 in0.0 mm 0.05 in1.3 mm
06:29 PM 59.7°F15.4°C 45.9°F7.7°C 60% 13.0 mph SW20.9 kmh SW 15.0 mph24.1 kmh 29.47 in998.0 mb 0.00 in0.0 mm 0.00 in0.0 mm 0.05 in1.3 mm
06:24 PM 60.1°F15.6°C 46.2°F7.9°C 60% 14.1 mph S22.7 kmh S 31.0 mph49.9 kmh 29.47 in998.0 mb 0.00 in0.0 mm 0.00 in0.0 mm 0.05 in1.3 mm
06:19 PM 60.1°F15.6°C 46.2°F7.9°C 60% 14.1 mph SSW22.7 kmh SSW 15.0 mph24.1 kmh 29.47 in998.0 mb 0.00 in0.0 mm 0.00 in0.0 mm 0.05 in1.3 mm
06:13 PM 60.3°F15.7°C 45.5°F7.5°C 58% 16.1 mph S25.9 kmh S 32.0 mph51.5 kmh 29.47 in998.0 mb 0.00 in0.0 mm 0.00 in0.0 mm 0.05 in1.3 mm
06:08 PM 60.4°F15.8°C 45.7°F7.6°C 58% 14.1 mph SSW22.7 kmh SSW 31.0 mph49.9 kmh 29.47 in998.0 mb 0.00 in0.0 mm 0.00 in0.0 mm 0.05 in1.3 mm
06:02 PM 60.3°F15.7°C 45.5°F7.5°C 58% 12.1 mph S19.5 kmh S 19.0 mph30.6 kmh 29.47 in998.0 mb 0.00 in0.0 mm 0.00 in0.0 mm 0.05 in1.3 mm
05:57 PM 60.1°F15.6°C 45.3°F7.4°C 58% 10.1 mph SE16.3 kmh SE 25.0 mph40.2 kmh 29.47 in998.0 mb 0.00 in0.0 mm 0.00 in0.0 mm 0.05 in1.3 mm
05:51 PM 60.1°F15.6°C 45.7°F7.6°C 59% 10.1 mph SSE16.3 kmh SSE 12.1 mph19.5 kmh 29.47 in998.0 mb 0.00 in0.0 mm 0.00 in0.0 mm 0.05 in1.3 mm
05:45 PM 60.1°F15.6°C 46.2°F7.9°C 60% 10.1 mph S16.3 kmh S 23.0 mph37.0 kmh 29.48 in998.3 mb 0.00 in0.0 mm 0.00 in0.0 mm 0.05 in1.3 mm
05:40 PM 59.9°F15.5°C 46.4°F8.0°C 61% 10.1 mph ESE16.3 kmh ESE 13.0 mph20.9 kmh 29.48 in998.3 mb 0.00 in0.0 mm 0.00 in0.0 mm 0.05 in1.3 mm
05:34 PM 59.9°F15.5°C 46.4°F8.0°C 61% 8.1 mph NW13.0 kmh NW 19.0 mph30.6 kmh 29.49 in998.6 mb 0.00 in0.0 mm 0.00 in0.0 mm 0.05 in1.3 mm
05:29 PM 59.7°F15.4°C 48.4°F9.1°C 66% 8.1 mph SE13.0 kmh SE 6.9 mph11.1 kmh 29.49 in998.6 mb 0.00 in0.0 mm 0.00 in0.0 mm 0.05 in1.3 mm
05:23 PM 59.7°F15.4°C 47.1°F8.4°C 63% 10.1 mph ESE16.3 kmh ESE 17.9 mph28.8 kmh 29.49 in998.6 mb 0.00 in0.0 mm 0.00 in0.0 mm 0.05 in1.3 mm
05:18 PM 59.9°F15.5°C 46.4°F8.0°C 61% 12.1 mph S19.5 kmh S 15.0 mph24.1 kmh 29.50 in999.0 mb 0.00 in0.0 mm 0.00 in0.0 mm 0.05 in1.3 mm
05:13 PM 60.1°F15.6°C 45.7°F7.6°C 59% 13.0 mph S20.9 kmh S 23.0 mph37.0 kmh 29.50 in999.0 mb 0.00 in0.0 mm 0.00 in0.0 mm 0.05 in1.3 mm
05:07 PM 60.4°F15.8°C 46.4°F8.0°C 60% 15.0 mph SSW24.1 kmh SSW 19.9 mph32.0 kmh 29.50 in999.0 mb 0.00 in0.0 mm 0.00 in0.0 mm 0.05 in1.3 mm
05:01 PM 61.3°F16.3°C 46.0°F7.8°C 57% 14.1 mph S22.7 kmh S 27.0 mph43.5 kmh 29.50 in999.0 mb 0.00 in0.0 mm 0.00 in0.0 mm 0.05 in1.3 mm
04:55 PM 61.5°F16.4°C 44.8°F7.1°C 54% 13.0 mph SSW20.9 kmh SSW 21.0 mph33.8 kmh 29.49 in998.6 mb 0.00 in0.0 mm 0.00 in0.0 mm 0.05 in1.3 mm
04:50 PM 61.5°F16.4°C 45.1°F7.3°C 55% 15.0 mph S24.1 kmh S 17.0 mph27.4 kmh 29.48 in998.3 mb 0.00 in0.0 mm 0.00 in0.0 mm 0.05 in1.3 mm
04:44 PM 61.7°F16.5°C 43.9°F6.6°C 52% 15.0 mph S24.1 kmh S 33.0 mph53.1 kmh 29.48 in998.3 mb 0.00 in0.0 mm 0.00 in0.0 mm 0.05 in1.3 mm
04:39 PM 62.1°F16.7°C 43.7°F6.5°C 51% 15.0 mph SE24.1 kmh SE 32.0 mph51.5 kmh 29.47 in998.0 mb 0.00 in0.0 mm 0.00 in0.0 mm 0.05 in1.3 mm
04:33 PM 62.1°F16.7°C 43.2°F6.2°C 50% 17.0 mph SSW27.4 kmh SSW 21.9 mph35.2 kmh 29.47 in998.0 mb 0.00 in0.0 mm 0.00 in0.0 mm 0.05 in1.3 mm
04:28 PM 62.2°F16.8°C 43.3°F6.3°C 50% 17.0 mph SSW27.4 kmh SSW 33.0 mph53.1 kmh 29.47 in998.0 mb 0.00 in0.0 mm 0.00 in0.0 mm 0.05 in1.3 mm
04:22 PM 62.4°F16.9°C 43.0°F6.1°C 49% 17.9 mph SSE28.8 kmh SSE 25.1 mph40.4 kmh 29.48 in998.3 mb 0.00 in0.0 mm 0.00 in0.0 mm 0.05 in1.3 mm
04:17 PM 62.2°F16.8°C 42.8°F6.0°C 49% 19.0 mph SE30.6 kmh SE 33.0 mph53.1 kmh 29.47 in998.0 mb 0.00 in0.0 mm 0.00 in0.0 mm 0.05 in1.3 mm
04:11 PM 62.1°F16.7°C 42.1°F5.6°C 48% 21.0 mph S33.8 kmh S 29.1 mph46.8 kmh 29.47 in998.0 mb 0.00 in0.0 mm 0.00 in0.0 mm 0.05 in1.3 mm
04:05 PM 62.1°F16.7°C 42.6°F5.9°C 49% 19.0 mph SSW30.6 kmh SSW 45.0 mph72.4 kmh 29.47 in998.0 mb 0.00 in0.0 mm 0.00 in0.0 mm 0.05 in1.3 mm
04:00 PM 62.1°F16.7°C 42.1°F5.6°C 48% 17.0 mph SE27.4 kmh SE 25.9 mph41.7 kmh 29.47 in998.0 mb 0.00 in0.0 mm 0.00 in0.0 mm 0.05 in1.3 mm
03:54 PM 62.1°F16.7°C 42.6°F5.9°C 49% 19.0 mph SSW30.6 kmh SSW 21.0 mph33.8 kmh 29.47 in998.0 mb 0.00 in0.0 mm 0.00 in0.0 mm 0.05 in1.3 mm
03:49 PM 61.9°F16.6°C 41.9°F5.5°C 48% 16.1 mph S25.9 kmh S 21.9 mph35.2 kmh 29.47 in998.0 mb 0.00 in0.0 mm 0.00 in0.0 mm 0.05 in1.3 mm
03:43 PM 61.9°F16.6°C 42.4°F5.8°C 49% 14.1 mph ENE22.7 kmh ENE 31.0 mph49.9 kmh 29.47 in998.0 mb 0.00 in0.0 mm 0.00 in0.0 mm 0.05 in1.3 mm
03:38 PM 61.7°F16.5°C 42.3°F5.7°C 49% 14.1 mph SE22.7 kmh SE 23.0 mph37.0 kmh 29.47 in998.0 mb 0.00 in0.0 mm 0.00 in0.0 mm 0.05 in1.3 mm
03:32 PM 61.5°F16.4°C 42.6°F5.9°C 50% 11.0 mph SE17.7 kmh SE 23.0 mph37.0 kmh 29.48 in998.3 mb 0.00 in0.0 mm 0.00 in0.0 mm 0.05 in1.3 mm
03:27 PM 61.3°F16.3°C 42.6°F5.9°C 50% 11.0 mph SSE17.7 kmh SSE 12.1 mph19.5 kmh 29.48 in998.3 mb 0.00 in0.0 mm 0.00 in0.0 mm 0.05 in1.3 mm
03:21 PM 61.2°F16.2°C 42.4°F5.8°C 50% 13.0 mph SSW20.9 kmh SSW 22.0 mph35.4 kmh 29.49 in998.6 mb 0.00 in0.0 mm 0.00 in0.0 mm 0.05 in1.3 mm
03:15 PM 61.0°F16.1°C 42.3°F5.7°C 50% 16.1 mph SE25.9 kmh SE 19.0 mph30.6 kmh 29.49 in998.6 mb 0.00 in0.0 mm 0.00 in0.0 mm 0.05 in1.3 mm
03:10 PM 61.2°F16.2°C 42.4°F5.8°C 50% 19.0 mph S30.6 kmh S 19.9 mph32.0 kmh 29.48 in998.3 mb 0.00 in0.0 mm 0.00 in0.0 mm 0.05 in1.3 mm
03:04 PM 61.3°F16.3°C 42.1°F5.6°C 49% 17.0 mph S27.4 kmh S 31.0 mph49.9 kmh 29.48 in998.3 mb 0.00 in0.0 mm 0.00 in0.0 mm 0.05 in1.3 mm
02:59 PM 61.9°F16.6°C 41.9°F5.5°C 48% 15.0 mph SSE24.1 kmh SSE 23.9 mph38.5 kmh 29.47 in998.0 mb 0.00 in0.0 mm 0.00 in0.0 mm 0.05 in1.3 mm
02:53 PM 61.7°F16.5°C 41.2°F5.1°C 47% 17.0 mph S27.4 kmh S 35.0 mph56.3 kmh 29.47 in998.0 mb 0.00 in0.0 mm 0.00 in0.0 mm 0.05 in1.3 mm
02:48 PM 61.9°F16.6°C 41.4°F5.2°C 47% 16.1 mph S25.9 kmh S 25.1 mph40.4 kmh 29.47 in998.0 mb 0.00 in0.0 mm 0.00 in0.0 mm 0.05 in1.3 mm
02:43 PM 63.1°F17.3°C 41.5°F5.3°C 45% 16.1 mph SE25.9 kmh SE 36.0 mph57.9 kmh 29.48 in998.3 mb 0.00 in0.0 mm 0.00 in0.0 mm 0.05 in1.3 mm
02:38 PM 63.5°F17.5°C 41.7°F5.4°C 45% 17.0 mph S27.4 kmh S 23.0 mph37.0 kmh 29.48 in998.3 mb 0.00 in0.0 mm 0.00 in0.0 mm 0.05 in1.3 mm
02:32 PM 63.0°F17.2°C 41.4°F5.2°C 45% 16.1 mph SE25.9 kmh SE 36.0 mph57.9 kmh 29.48 in998.3 mb 0.00 in0.0 mm 0.00 in0.0 mm 0.05 in1.3 mm
02:27 PM 62.4°F16.9°C 41.4°F5.2°C 46% 17.9 mph SW28.8 kmh SW 34.0 mph54.7 kmh 29.47 in998.0 mb 0.00 in0.0 mm 0.00 in0.0 mm 0.05 in1.3 mm
02:20 PM 62.2°F16.8°C 41.7°F5.4°C 47% 19.0 mph S30.6 kmh S 23.0 mph37.0 kmh 29.47 in998.0 mb 0.00 in0.0 mm 0.00 in0.0 mm 0.05 in1.3 mm
02:15 PM 61.9°F16.6°C 41.9°F5.5°C 48% 17.0 mph SW27.4 kmh SW 34.0 mph54.7 kmh 29.47 in998.0 mb 0.00 in0.0 mm 0.00 in0.0 mm 0.05 in1.3 mm
02:10 PM 62.2°F16.8°C 41.7°F5.4°C 47% 16.1 mph S25.9 kmh S 17.0 mph27.4 kmh 29.48 in998.3 mb 0.00 in0.0 mm 0.00 in0.0 mm 0.05 in1.3 mm
02:04 PM 61.9°F16.6°C 41.9°F5.5°C 48% 17.0 mph S27.4 kmh S 38.0 mph61.2 kmh 29.48 in998.3 mb 0.00 in0.0 mm 0.00 in0.0 mm 0.05 in1.3 mm
01:59 PM 61.9°F16.6°C 41.4°F5.2°C 47% 14.1 mph SE22.7 kmh SE 29.0 mph46.7 kmh 29.48 in998.3 mb 0.00 in0.0 mm 0.00 in0.0 mm 0.05 in1.3 mm
01:53 PM 61.5°F16.4°C 41.2°F5.1°C 47% 16.1 mph SSW25.9 kmh SSW 17.0 mph27.4 kmh 29.47 in998.0 mb 0.00 in0.0 mm 0.00 in0.0 mm 0.05 in1.3 mm
01:48 PM 61.2°F16.2°C 39.7°F4.3°C 45% 16.1 mph SSE25.9 kmh SSE 43.0 mph69.2 kmh 29.47 in998.0 mb 0.00 in0.0 mm 0.00 in0.0 mm 0.05 in1.3 mm
01:42 PM 61.7°F16.5°C 40.6°F4.8°C 46% 13.0 mph SSE20.9 kmh SSE 23.0 mph37.0 kmh 29.48 in998.3 mb 0.00 in0.0 mm 0.00 in0.0 mm 0.05 in1.3 mm
01:36 PM 61.7°F16.5°C 41.2°F5.1°C 47% 13.0 mph S20.9 kmh S 19.9 mph32.0 kmh 29.49 in998.6 mb 0.00 in0.0 mm 0.00 in0.0 mm 0.05 in1.3 mm
01:30 PM 61.5°F16.4°C 40.5°F4.7°C 46% 14.1 mph SE22.7 kmh SE 26.0 mph41.8 kmh 29.49 in998.6 mb 0.00 in0.0 mm 0.00 in0.0 mm 0.05 in1.3 mm
01:25 PM 60.8°F16.0°C 40.5°F4.7°C 47% 16.1 mph SE25.9 kmh SE 19.0 mph30.6 kmh 29.49 in998.6 mb 0.00 in0.0 mm 0.00 in0.0 mm 0.05 in1.3 mm
01:19 PM 60.8°F16.0°C 40.5°F4.7°C 47% 14.1 mph SE22.7 kmh SE 29.0 mph46.7 kmh 29.49 in998.6 mb 0.00 in0.0 mm 0.00 in0.0 mm 0.05 in1.3 mm
01:13 PM 61.0°F16.1°C 40.1°F4.5°C 46% 17.0 mph S27.4 kmh S 17.9 mph28.8 kmh 29.48 in998.3 mb 0.00 in0.0 mm 0.00 in0.0 mm 0.05 in1.3 mm
01:08 PM 60.4°F15.8°C 40.6°F4.8°C 48% 17.9 mph S28.8 kmh S 34.0 mph54.7 kmh 29.48 in998.3 mb 0.00 in0.0 mm 0.00 in0.0 mm 0.05 in1.3 mm
01:02 PM 60.4°F15.8°C 40.6°F4.8°C 48% 17.0 mph S27.4 kmh S 27.1 mph43.6 kmh 29.49 in998.6 mb 0.00 in0.0 mm 0.00 in0.0 mm 0.05 in1.3 mm
12:57 PM 59.7°F15.4°C 39.4°F4.1°C 47% 17.0 mph S27.4 kmh S 32.0 mph51.5 kmh 29.49 in998.6 mb 0.00 in0.0 mm 0.00 in0.0 mm 0.05 in1.3 mm
12:51 PM 59.7°F15.4°C 39.9°F4.4°C 48% 16.1 mph S25.9 kmh S 23.0 mph37.0 kmh 29.49 in998.6 mb 0.00 in0.0 mm 0.00 in0.0 mm 0.05 in1.3 mm
12:45 PM 59.5°F15.3°C 39.4°F4.1°C 47% 16.1 mph SSW25.9 kmh SSW 36.0 mph57.9 kmh 29.49 in998.6 mb 0.00 in0.0 mm 0.00 in0.0 mm 0.05 in1.3 mm
12:40 PM 59.5°F15.3°C 40.3°F4.6°C 49% 15.0 mph S24.1 kmh S 30.0 mph48.3 kmh 29.49 in998.6 mb 0.00 in0.0 mm 0.00 in0.0 mm 0.05 in1.3 mm
12:34 PM 58.8°F14.9°C 40.8°F4.9°C 51% 16.1 mph SW25.9 kmh SW 19.9 mph32.0 kmh 29.50 in999.0 mb 0.00 in0.0 mm 0.00 in0.0 mm 0.05 in1.3 mm
12:29 PM 58.5°F14.7°C 39.9°F4.4°C 50% 14.1 mph SSW22.7 kmh SSW 29.0 mph46.7 kmh 29.49 in998.6 mb 0.00 in0.0 mm 0.00 in0.0 mm 0.05 in1.3 mm
12:23 PM 58.5°F14.7°C 39.9°F4.4°C 50% 14.1 mph SSW22.7 kmh SSW 17.9 mph28.8 kmh 29.49 in998.6 mb 0.00 in0.0 mm 0.00 in0.0 mm 0.05 in1.3 mm
12:18 PM 58.3°F14.6°C 39.7°F4.3°C 50% 15.0 mph SE24.1 kmh SE 31.0 mph49.9 kmh 29.49 in998.6 mb 0.00 in0.0 mm 0.00 in0.0 mm 0.05 in1.3 mm
12:12 PM 57.9°F14.4°C 39.4°F4.1°C 50% 13.0 mph SE20.9 kmh SE 28.0 mph45.1 kmh 29.49 in998.6 mb 0.00 in0.0 mm 0.00 in0.0 mm 0.05 in1.3 mm
12:07 PM 57.6°F14.2°C 39.6°F4.2°C 51% 14.1 mph WSW22.7 kmh WSW 25.9 mph41.7 kmh 29.50 in999.0 mb 0.00 in0.0 mm 0.00 in0.0 mm 0.05 in1.3 mm
12:01 PM 57.0°F13.9°C 39.0°F3.9°C 51% 13.0 mph SW20.9 kmh SW 25.0 mph40.2 kmh 29.50 in999.0 mb 0.00 in0.0 mm 0.00 in0.0 mm 0.05 in1.3 mm
11:55 AM 56.8°F13.8°C 39.4°F4.1°C 52% 12.1 mph S19.5 kmh S 24.0 mph38.6 kmh 29.50 in999.0 mb 0.00 in0.0 mm 0.00 in0.0 mm 0.05 in1.3 mm
11:50 AM 56.5°F13.6°C 39.0°F3.9°C 52% 14.1 mph SSW22.7 kmh SSW 17.0 mph27.4 kmh 29.50 in999.0 mb 0.00 in0.0 mm 0.00 in0.0 mm 0.05 in1.3 mm
11:44 AM 56.5°F13.6°C 38.7°F3.7°C 51% 13.0 mph S20.9 kmh S 31.0 mph49.9 kmh 29.51 in999.3 mb 0.00 in0.0 mm 0.00 in0.0 mm 0.05 in1.3 mm
11:39 AM 56.5°F13.6°C 38.7°F3.7°C 51% 11.0 mph SE17.7 kmh SE 23.0 mph37.0 kmh 29.52 in999.7 mb 0.00 in0.0 mm 0.00 in0.0 mm 0.05 in1.3 mm
11:33 AM 56.3°F13.5°C 38.5°F3.6°C 51% 11.0 mph SSE17.7 kmh SSE 13.0 mph20.9 kmh 29.52 in999.7 mb 0.00 in0.0 mm 0.00 in0.0 mm 0.05 in1.3 mm
11:28 AM 56.3°F13.5°C 38.5°F3.6°C 51% 11.0 mph S17.7 kmh S 11.0 mph17.7 kmh 29.52 in999.7 mb 0.00 in0.0 mm 0.00 in0.0 mm 0.05 in1.3 mm
11:22 AM 56.3°F13.5°C 37.9°F3.3°C 50% 12.1 mph S19.5 kmh S 19.0 mph30.6 kmh 29.52 in999.7 mb 0.01 in0.3 mm 0.00 in0.0 mm 0.05 in1.3 mm
11:17 AM 56.5°F13.6°C 38.1°F3.4°C 50% 13.0 mph S20.9 kmh S 16.1 mph25.9 kmh 29.52 in999.7 mb 0.01 in0.3 mm 0.00 in0.0 mm 0.05 in1.3 mm
11:10 AM 56.5°F13.6°C 38.1°F3.4°C 50% 14.1 mph S22.7 kmh S 27.0 mph43.5 kmh 29.53 in1000.0 mb 0.01 in0.3 mm 0.00 in0.0 mm 0.05 in1.3 mm
11:05 AM 56.5°F13.6°C 37.6°F3.1°C 49% 14.1 mph SW22.7 kmh SW 21.0 mph33.8 kmh 29.53 in1000.0 mb 0.01 in0.3 mm 0.00 in0.0 mm 0.05 in1.3 mm
11:00 AM 56.7°F13.7°C 37.8°F3.2°C 49% 14.1 mph SSE22.7 kmh SSE 23.0 mph37.0 kmh 29.53 in1000.0 mb 0.01 in0.3 mm 0.00 in0.0 mm 0.05 in1.3 mm
10:54 AM 56.7°F13.7°C 37.8°F3.2°C 49% 14.1 mph S22.7 kmh S 29.1 mph46.8 kmh 29.53 in1000.0 mb 0.01 in0.3 mm 0.00 in0.0 mm 0.05 in1.3 mm
10:49 AM 56.7°F13.7°C 37.8°F3.2°C 49% 15.0 mph SSE24.1 kmh SSE 29.0 mph46.7 kmh 29.53 in1000.0 mb 0.01 in0.3 mm 0.00 in0.0 mm 0.05 in1.3 mm
10:43 AM 56.8°F13.8°C 37.9°F3.3°C 49% 13.0 mph SSE20.9 kmh SSE 21.0 mph33.8 kmh 29.53 in1000.0 mb 0.01 in0.3 mm 0.00 in0.0 mm 0.05 in1.3 mm
10:38 AM 56.8°F13.8°C 38.5°F3.6°C 50% 12.1 mph S19.5 kmh S 23.0 mph37.0 kmh 29.53 in1000.0 mb 0.01 in0.3 mm 0.00 in0.0 mm 0.05 in1.3 mm
10:32 AM 57.0°F13.9°C 38.1°F3.4°C 49% 11.0 mph S17.7 kmh S 17.0 mph27.4 kmh 29.53 in1000.0 mb 0.01 in0.3 mm 0.00 in0.0 mm 0.05 in1.3 mm
10:27 AM 57.0°F13.9°C 38.1°F3.4°C 49% 10.1 mph SSE16.3 kmh SSE 24.0 mph38.6 kmh 29.52 in999.7 mb 0.01 in0.3 mm 0.09 in2.3 mm 0.05 in1.3 mm
10:20 AM 57.0°F13.9°C 38.1°F3.4°C 49% 8.9 mph SSE14.3 kmh SSE 15.0 mph24.1 kmh 29.52 in999.7 mb 0.00 in0.0 mm 0.00 in0.0 mm 0.04 in1.0 mm
10:13 AM 57.0°F13.9°C 38.5°F3.6°C 50% 8.9 mph S14.3 kmh S 12.1 mph19.5 kmh 29.52 in999.7 mb 0.00 in0.0 mm 0.00 in0.0 mm 0.04 in1.0 mm
10:08 AM 57.2°F14.0°C 38.7°F3.7°C 50% 8.9 mph SE14.3 kmh SE 22.0 mph35.4 kmh 29.52 in999.7 mb 0.00 in0.0 mm 0.00 in0.0 mm 0.04 in1.0 mm
10:02 AM 57.2°F14.0°C 38.7°F3.7°C 50% 11.0 mph S17.7 kmh S 19.9 mph32.0 kmh 29.52 in999.7 mb 0.00 in0.0 mm 0.00 in0.0 mm 0.04 in1.0 mm
09:57 AM 57.2°F14.0°C 38.7°F3.7°C 50% 8.1 mph SE13.0 kmh SE 22.0 mph35.4 kmh 29.52 in999.7 mb 0.00 in0.0 mm 0.00 in0.0 mm 0.04 in1.0 mm
09:52 AM 57.0°F13.9°C 38.5°F3.6°C 50% 6.9 mph SSE11.1 kmh SSE 13.0 mph20.9 kmh 29.52 in999.7 mb 0.00 in0.0 mm 0.00 in0.0 mm 0.04 in1.0 mm
09:47 AM 56.8°F13.8°C 39.4°F4.1°C 52% 8.9 mph S14.3 kmh S 16.0 mph25.7 kmh 29.52 in999.7 mb 0.00 in0.0 mm 0.00 in0.0 mm 0.04 in1.0 mm
09:41 AM 56.7°F13.7°C 39.2°F4.0°C 52% 8.1 mph SSW13.0 kmh SSW 10.1 mph16.3 kmh 29.53 in1000.0 mb 0.00 in0.0 mm 0.00 in0.0 mm 0.04 in1.0 mm
09:35 AM 56.7°F13.7°C 39.7°F4.3°C 53% 8.1 mph SW13.0 kmh SW 14.0 mph22.5 kmh 29.53 in1000.0 mb 0.00 in0.0 mm 0.00 in0.0 mm 0.04 in1.0 mm
09:30 AM 56.8°F13.8°C 39.9°F4.4°C 53% 8.1 mph SE13.0 kmh SE 12.1 mph19.5 kmh 29.52 in999.7 mb 0.00 in0.0 mm 0.00 in0.0 mm 0.04 in1.0 mm
09:24 AM 56.7°F13.7°C 39.7°F4.3°C 53% 4.0 mph SSW6.4 kmh SSW 15.0 mph24.1 kmh 29.53 in1000.0 mb 0.00 in0.0 mm 0.00 in0.0 mm 0.04 in1.0 mm
09:19 AM 56.7°F13.7°C 40.3°F4.6°C 54% 0.9 mph SE1.4 kmh SE 8.1 mph13.0 kmh 29.52 in999.7 mb 0.00 in0.0 mm 0.00 in0.0 mm 0.04 in1.0 mm
09:13 AM 56.5°F13.6°C 41.4°F5.2°C 57% 2.9 mph SE4.7 kmh SE 7.0 mph11.3 kmh 29.52 in999.7 mb 0.00 in0.0 mm 0.00 in0.0 mm 0.04 in1.0 mm
09:08 AM 55.9°F13.3°C 40.5°F4.7°C 56% 4.0 mph SE6.4 kmh SE 6.0 mph9.7 kmh 29.52 in999.7 mb 0.00 in0.0 mm 0.00 in0.0 mm 0.04 in1.0 mm
09:02 AM 55.9°F13.3°C 39.9°F4.4°C 55% 4.0 mph SSE6.4 kmh SSE 6.9 mph11.1 kmh 29.53 in1000.0 mb 0.00 in0.0 mm 0.00 in0.0 mm 0.04 in1.0 mm
08:57 AM 55.6°F13.1°C 40.1°F4.5°C 56% 4.0 mph S6.4 kmh S 4.0 mph6.4 kmh 29.53 in1000.0 mb 0.00 in0.0 mm 0.00 in0.0 mm 0.04 in1.0 mm
08:51 AM 55.6°F13.1°C 40.1°F4.5°C 56% 6.0 mph SSW9.7 kmh SSW 14.0 mph22.5 kmh 29.53 in1000.0 mb 0.00 in0.0 mm 0.00 in0.0 mm 0.04 in1.0 mm
08:45 AM 55.2°F12.9°C 39.4°F4.1°C 55% 6.9 mph SW11.1 kmh SW 8.9 mph14.3 kmh 29.54 in1000.3 mb 0.00 in0.0 mm 0.00 in0.0 mm 0.04 in1.0 mm
08:40 AM 55.2°F12.9°C 39.7°F4.3°C 56% 8.1 mph S13.0 kmh S 15.0 mph24.1 kmh 29.54 in1000.3 mb 0.00 in0.0 mm 0.00 in0.0 mm 0.04 in1.0 mm
08:34 AM 55.0°F12.8°C 39.6°F4.2°C 56% 10.1 mph WSW16.3 kmh WSW 10.1 mph16.3 kmh 29.54 in1000.3 mb 0.00 in0.0 mm 0.00 in0.0 mm 0.04 in1.0 mm
08:29 AM 54.9°F12.7°C 39.4°F4.1°C 56% 8.9 mph SSW14.3 kmh SSW 19.0 mph30.6 kmh 29.54 in1000.3 mb 0.00 in0.0 mm 0.00 in0.0 mm 0.04 in1.0 mm
08:23 AM 54.7°F12.6°C 40.3°F4.6°C 58% 8.9 mph SW14.3 kmh SW 17.0 mph27.4 kmh 29.54 in1000.3 mb 0.00 in0.0 mm 0.00 in0.0 mm 0.04 in1.0 mm
08:18 AM 54.3°F12.4°C 40.3°F4.6°C 59% 8.9 mph S14.3 kmh S 16.0 mph25.7 kmh 29.55 in1000.7 mb 0.00 in0.0 mm 0.00 in0.0 mm 0.04 in1.0 mm
08:12 AM 54.0°F12.2°C 40.5°F4.7°C 60% 8.1 mph SSW13.0 kmh SSW 14.1 mph22.7 kmh 29.54 in1000.3 mb 0.00 in0.0 mm 0.00 in0.0 mm 0.04 in1.0 mm
08:07 AM 54.0°F12.2°C 40.5°F4.7°C 60% 6.9 mph S11.1 kmh S 16.0 mph25.7 kmh 29.54 in1000.3 mb 0.00 in0.0 mm 0.00 in0.0 mm 0.04 in1.0 mm
08:01 AM 53.6°F12.0°C 40.8°F4.9°C 62% 6.0 mph SSW9.7 kmh SSW 8.9 mph14.3 kmh 29.54 in1000.3 mb 0.00 in0.0 mm 0.00 in0.0 mm 0.04 in1.0 mm
07:55 AM 53.4°F11.9°C 40.6°F4.8°C 62% 4.9 mph SW7.9 kmh SW 12.0 mph19.3 kmh 29.54 in1000.3 mb 0.00 in0.0 mm 0.00 in0.0 mm 0.04 in1.0 mm
07:50 AM 53.1°F11.7°C 40.8°F4.9°C 63% 4.9 mph SSW7.9 kmh SSW 8.1 mph13.0 kmh 29.53 in1000.0 mb 0.00 in0.0 mm 0.00 in0.0 mm 0.04 in1.0 mm
07:45 AM 52.7°F11.5°C 40.5°F4.7°C 63% 6.0 mph SSE9.7 kmh SSE 10.0 mph16.1 kmh 29.53 in1000.0 mb 0.00 in0.0 mm 0.00 in0.0 mm 0.04 in1.0 mm
07:39 AM 52.3°F11.3°C 40.1°F4.5°C 63% 6.9 mph SW11.1 kmh SW 8.1 mph13.0 kmh 29.53 in1000.0 mb 0.00 in0.0 mm 0.00 in0.0 mm 0.04 in1.0 mm
07:34 AM 52.2°F11.2°C 40.3°F4.6°C 64% 4.9 mph SW7.9 kmh SW 14.0 mph22.5 kmh 29.54 in1000.3 mb 0.00 in0.0 mm 0.00 in0.0 mm 0.04 in1.0 mm
07:28 AM 51.8°F11.0°C 40.5°F4.7°C 65% 4.9 mph SW7.9 kmh SW 10.0 mph16.1 kmh 29.54 in1000.3 mb 0.00 in0.0 mm 0.00 in0.0 mm 0.04 in1.0 mm
07:22 AM 51.4°F10.8°C 40.5°F4.7°C 66% 6.0 mph SSE9.7 kmh SSE 6.9 mph11.1 kmh 29.54 in1000.3 mb 0.00 in0.0 mm 0.00 in0.0 mm 0.04 in1.0 mm
07:17 AM 51.4°F10.8°C 40.1°F4.5°C 65% 6.0 mph SW9.7 kmh SW 13.0 mph20.9 kmh 29.54 in1000.3 mb 0.00 in0.0 mm 0.00 in0.0 mm 0.04 in1.0 mm
07:10 AM 51.3°F10.7°C 40.6°F4.8°C 67% 6.0 mph SW9.7 kmh SW 14.0 mph22.5 kmh 29.54 in1000.3 mb 0.00 in0.0 mm 0.00 in0.0 mm 0.04 in1.0 mm
07:05 AM 50.9°F10.5°C 40.3°F4.6°C 67% 4.0 mph SSW6.4 kmh SSW 13.0 mph20.9 kmh 29.54 in1000.3 mb 0.00 in0.0 mm 0.00 in0.0 mm 0.04 in1.0 mm
07:00 AM 50.7°F10.4°C 41.0°F5.0°C 69% 4.9 mph SSW7.9 kmh SSW 12.0 mph19.3 kmh 29.54 in1000.3 mb 0.00 in0.0 mm 0.00 in0.0 mm 0.04 in1.0 mm
06:55 AM 50.4°F10.2°C 41.0°F5.0°C 70% 6.9 mph SSW11.1 kmh SSW 6.9 mph11.1 kmh 29.54 in1000.3 mb 0.00 in0.0 mm 0.00 in0.0 mm 0.04 in1.0 mm
06:50 AM 49.5°F9.7°C 41.2°F5.1°C 73% 6.0 mph S9.7 kmh S 12.0 mph19.3 kmh 29.54 in1000.3 mb 0.00 in0.0 mm 0.00 in0.0 mm 0.04 in1.0 mm
06:44 AM 47.7°F8.7°C 41.5°F5.3°C 79% 4.0 mph SSW6.4 kmh SSW 10.0 mph16.1 kmh 29.54 in1000.3 mb 0.00 in0.0 mm 0.00 in0.0 mm 0.04 in1.0 mm
06:38 AM 48.2°F9.0°C 42.6°F5.9°C 81% 2.9 mph S4.7 kmh S 7.0 mph11.3 kmh 29.54 in1000.3 mb 0.00 in0.0 mm 0.00 in0.0 mm 0.04 in1.0 mm
06:33 AM 48.6°F9.2°C 43.0°F6.1°C 81% 2.0 mph SW3.2 kmh SW 5.0 mph8.0 kmh 29.54 in1000.3 mb 0.00 in0.0 mm 0.00 in0.0 mm 0.04 in1.0 mm
06:27 AM 48.2°F9.0°C 42.3°F5.7°C 80% 2.0 mph SE3.2 kmh SE 2.9 mph4.7 kmh 29.53 in1000.0 mb 0.00 in0.0 mm 0.00 in0.0 mm 0.04 in1.0 mm
06:21 AM 46.8°F8.2°C 42.4°F5.8°C 85% 2.0 mph SSW3.2 kmh SSW 4.9 mph7.9 kmh 29.54 in1000.3 mb 0.00 in0.0 mm 0.00 in0.0 mm 0.04 in1.0 mm
06:16 AM 46.9°F8.3°C 42.6°F5.9°C 85% 2.0 mph SE3.2 kmh SE 4.9 mph7.9 kmh 29.53 in1000.0 mb 0.00 in0.0 mm 0.00 in0.0 mm 0.04 in1.0 mm
06:10 AM 46.4°F8.0°C 42.8°F6.0°C 87% 0.9 mph SW1.4 kmh SW 2.9 mph4.7 kmh 29.53 in1000.0 mb 0.00 in0.0 mm 0.00 in0.0 mm 0.04 in1.0 mm
06:04 AM 47.1°F8.4°C 43.5°F6.4°C 87% 0.9 mph W1.4 kmh W 4.0 mph6.4 kmh 29.53 in1000.0 mb 0.00 in0.0 mm 0.00 in0.0 mm 0.04 in1.0 mm
05:59 AM 46.2°F7.9°C 43.2°F6.2°C 89% 0.9 mph NNW1.4 kmh NNW 2.9 mph4.7 kmh 29.53 in1000.0 mb 0.00 in0.0 mm 0.00 in0.0 mm 0.04 in1.0 mm
05:53 AM 47.8°F8.8°C 44.2°F6.8°C 87% 0.9 mph W1.4 kmh W 4.0 mph6.4 kmh 29.53 in1000.0 mb 0.00 in0.0 mm 0.00 in0.0 mm 0.04 in1.0 mm
05:48 AM 46.6°F8.1°C 43.5°F6.4°C 89% 2.0 mph NW3.2 kmh NW 2.0 mph3.2 kmh 29.53 in1000.0 mb 0.00 in0.0 mm 0.00 in0.0 mm 0.04 in1.0 mm
05:42 AM 47.7°F8.7°C 43.3°F6.3°C 85% 2.0 mph SW3.2 kmh SW 6.0 mph9.7 kmh 29.53 in1000.0 mb 0.00 in0.0 mm 0.00 in0.0 mm 0.04 in1.0 mm
05:37 AM 47.1°F8.4°C 44.1°F6.7°C 89% 2.0 mph WNW3.2 kmh WNW 4.0 mph6.4 kmh 29.53 in1000.0 mb 0.00 in0.0 mm 0.00 in0.0 mm 0.04 in1.0 mm
05:31 AM 45.5°F7.5°C 43.5°F6.4°C 93% 2.0 mph WSW3.2 kmh WSW 5.0 mph8.0 kmh 29.53 in1000.0 mb 0.00 in0.0 mm 0.00 in0.0 mm 0.04 in1.0 mm
05:26 AM 45.5°F7.5°C 43.5°F6.4°C 93% 2.0 mph SW3.2 kmh SW 4.0 mph6.4 kmh 29.53 in1000.0 mb 0.00 in0.0 mm 0.00 in0.0 mm 0.04 in1.0 mm
05:20 AM 45.7°F7.6°C 43.7°F6.5°C 93% 2.0 mph WSW3.2 kmh WSW 4.0 mph6.4 kmh 29.53 in1000.0 mb 0.00 in0.0 mm 0.00 in0.0 mm 0.04 in1.0 mm
05:14 AM 45.9°F7.7°C 43.7°F6.5°C 92% 2.0 mph SW3.2 kmh SW 2.0 mph3.2 kmh 29.53 in1000.0 mb 0.00 in0.0 mm 0.00 in0.0 mm 0.04 in1.0 mm
05:09 AM 46.0°F7.8°C 43.5°F6.4°C 91% 2.0 mph WSW3.2 kmh WSW 2.9 mph4.7 kmh 29.54 in1000.3 mb 0.00 in0.0 mm 0.00 in0.0 mm 0.04 in1.0 mm
05:03 AM 46.4°F8.0°C 43.9°F6.6°C 91% 2.0 mph WSW3.2 kmh WSW 2.9 mph4.7 kmh 29.54 in1000.3 mb 0.00 in0.0 mm 0.00 in0.0 mm 0.04 in1.0 mm
04:58 AM 46.9°F8.3°C 43.9°F6.6°C 89% 2.0 mph WSW3.2 kmh WSW 5.0 mph8.0 kmh 29.54 in1000.3 mb 0.00 in0.0 mm 0.00 in0.0 mm 0.04 in1.0 mm
04:52 AM 47.3°F8.5°C 44.8°F7.1°C 91% 2.0 mph WSW3.2 kmh WSW 2.9 mph4.7 kmh 29.54 in1000.3 mb 0.00 in0.0 mm 0.00 in0.0 mm 0.04 in1.0 mm
04:47 AM 46.6°F8.1°C 44.4°F6.9°C 92% 2.9 mph WSW4.7 kmh WSW 5.0 mph8.0 kmh 29.54 in1000.3 mb 0.00 in0.0 mm 0.00 in0.0 mm 0.04 in1.0 mm
04:41 AM 46.4°F8.0°C 44.2°F6.8°C 92% 2.9 mph WSW4.7 kmh WSW 4.0 mph6.4 kmh 29.54 in1000.3 mb 0.00 in0.0 mm 0.00 in0.0 mm 0.04 in1.0 mm
04:35 AM 46.6°F8.1°C 44.1°F6.7°C 91% 2.0 mph WSW3.2 kmh WSW 5.0 mph8.0 kmh 29.54 in1000.3 mb 0.00 in0.0 mm 0.00 in0.0 mm 0.04 in1.0 mm
04:30 AM 47.1°F8.4°C 44.6°F7.0°C 91% 2.0 mph SW3.2 kmh SW 4.0 mph6.4 kmh 29.54 in1000.3 mb 0.00 in0.0 mm 0.00 in0.0 mm 0.04 in1.0 mm
04:24 AM 47.3°F8.5°C 45.1°F7.3°C 92% 2.0 mph NW3.2 kmh NW 3.0 mph4.8 kmh 29.54 in1000.3 mb 0.00 in0.0 mm 0.00 in0.0 mm 0.04 in1.0 mm
04:19 AM 47.7°F8.7°C 45.1°F7.3°C 91% 0.9 mph WSW1.4 kmh WSW 2.0 mph3.2 kmh 29.54 in1000.3 mb 0.00 in0.0 mm 0.00 in0.0 mm 0.04 in1.0 mm
04:13 AM 48.0°F8.9°C 45.5°F7.5°C 91% 0.9 mph SW1.4 kmh SW 2.9 mph4.7 kmh 29.55 in1000.7 mb 0.00 in0.0 mm 0.00 in0.0 mm 0.04 in1.0 mm
04:08 AM 48.0°F8.9°C 46.0°F7.8°C 93% 0.9 mph WNW1.4 kmh WNW 2.9 mph4.7 kmh 29.55 in1000.7 mb 0.00 in0.0 mm 0.00 in0.0 mm 0.04 in1.0 mm
04:02 AM 48.2°F9.0°C 46.0°F7.8°C 92% 0.9 mph SW1.4 kmh SW 2.9 mph4.7 kmh 29.55 in1000.7 mb 0.00 in0.0 mm 0.00 in0.0 mm 0.04 in1.0 mm
03:57 AM 48.2°F9.0°C 45.7°F7.6°C 91% 2.0 mph SW3.2 kmh SW 2.9 mph4.7 kmh 29.55 in1000.7 mb 0.00 in0.0 mm 0.00 in0.0 mm 0.04 in1.0 mm
03:50 AM 48.4°F9.1°C 45.9°F7.7°C 91% 2.0 mph SW3.2 kmh SW 2.9 mph4.7 kmh 29.55 in1000.7 mb 0.00 in0.0 mm 0.00 in0.0 mm 0.04 in1.0 mm
03:45 AM 48.7°F9.3°C 45.9°F7.7°C 90% 0.9 mph SW1.4 kmh SW 3.0 mph4.8 kmh 29.55 in1000.7 mb 0.00 in0.0 mm 0.00 in0.0 mm 0.04 in1.0 mm
03:39 AM 48.9°F9.4°C 46.0°F7.8°C 90% 2.0 mph SW3.2 kmh SW 2.0 mph3.2 kmh 29.55 in1000.7 mb 0.00 in0.0 mm 0.00 in0.0 mm 0.04 in1.0 mm
03:34 AM 48.9°F9.4°C 45.9°F7.7°C 89% 2.0 mph SW3.2 kmh SW 4.0 mph6.4 kmh 29.55 in1000.7 mb 0.00 in0.0 mm 0.00 in0.0 mm 0.04 in1.0 mm
03:28 AM 48.9°F9.4°C 45.9°F7.7°C 89% 2.0 mph SSW3.2 kmh SSW 2.9 mph4.7 kmh 29.55 in1000.7 mb 0.00 in0.0 mm 0.00 in0.0 mm 0.04 in1.0 mm
03:22 AM 48.9°F9.4°C 46.0°F7.8°C 90% 2.0 mph SW3.2 kmh SW 4.0 mph6.4 kmh 29.55 in1000.7 mb 0.00 in0.0 mm 0.00 in0.0 mm 0.04 in1.0 mm
03:17 AM 49.3°F9.6°C 46.8°F8.2°C 91% 2.0 mph SSW3.2 kmh SSW 2.9 mph4.7 kmh 29.55 in1000.7 mb 0.00 in0.0 mm 0.00 in0.0 mm 0.04 in1.0 mm
03:11 AM 49.5°F9.7°C 46.6°F8.1°C 90% 2.0 mph SW3.2 kmh SW 2.9 mph4.7 kmh 29.56 in1001.0 mb 0.00 in0.0 mm 0.00 in0.0 mm 0.04 in1.0 mm
03:06 AM 49.6°F9.8°C 46.8°F8.2°C 90% 2.0 mph SW3.2 kmh SW 2.0 mph3.2 kmh 29.55 in1000.7 mb 0.00 in0.0 mm 0.00 in0.0 mm 0.04 in1.0 mm
03:00 AM 50.0°F10.0°C 46.9°F8.3°C 89% 2.0 mph SW3.2 kmh SW 2.9 mph4.7 kmh 29.55 in1000.7 mb 0.00 in0.0 mm 0.00 in0.0 mm 0.04 in1.0 mm
02:55 AM 50.2°F10.1°C 46.2°F7.9°C 86% 2.0 mph WSW3.2 kmh WSW 5.0 mph8.0 kmh 29.55 in1000.7 mb 0.00 in0.0 mm 0.00 in0.0 mm 0.04 in1.0 mm
02:49 AM 50.2°F10.1°C 46.8°F8.2°C 88% 2.9 mph WSW4.7 kmh WSW 2.0 mph3.2 kmh 29.55 in1000.7 mb 0.00 in0.0 mm 0.00 in0.0 mm 0.04 in1.0 mm
02:43 AM 49.6°F9.8°C 46.6°F8.1°C 89% 2.9 mph SW4.7 kmh SW 5.0 mph8.0 kmh 29.55 in1000.7 mb 0.00 in0.0 mm 0.00 in0.0 mm 0.04 in1.0 mm
02:38 AM 49.5°F9.7°C 46.9°F8.3°C 91% 2.0 mph SW3.2 kmh SW 2.9 mph4.7 kmh 29.55 in1000.7 mb 0.00 in0.0 mm 0.00 in0.0 mm 0.04 in1.0 mm
02:32 AM 49.5°F9.7°C 46.9°F8.3°C 91% 0.9 mph SSW1.4 kmh SSW 3.0 mph4.8 kmh 29.55 in1000.7 mb 0.00 in0.0 mm 0.00 in0.0 mm 0.04 in1.0 mm
02:27 AM 49.5°F9.7°C 47.5°F8.6°C 93% 2.0 mph SSW3.2 kmh SSW 2.0 mph3.2 kmh 29.55 in1000.7 mb 0.00 in0.0 mm 0.00 in0.0 mm 0.04 in1.0 mm
02:21 AM 49.3°F9.6°C 47.3°F8.5°C 93% 2.0 mph SW3.2 kmh SW 4.0 mph6.4 kmh 29.55 in1000.7 mb 0.00 in0.0 mm 0.00 in0.0 mm 0.04 in1.0 mm
02:15 AM 49.3°F9.6°C 47.3°F8.5°C 93% 0.9 mph SW1.4 kmh SW 2.0 mph3.2 kmh 29.55 in1000.7 mb 0.00 in0.0 mm 0.00 in0.0 mm 0.04 in1.0 mm
02:10 AM 49.3°F9.6°C 47.3°F8.5°C 93% 0.9 mph SW1.4 kmh SW 3.0 mph4.8 kmh 29.54 in1000.3 mb 0.00 in0.0 mm 0.00 in0.0 mm 0.04 in1.0 mm
02:04 AM 49.3°F9.6°C 47.7°F8.7°C 94% 2.0 mph WSW3.2 kmh WSW 2.0 mph3.2 kmh 29.55 in1000.7 mb 0.00 in0.0 mm 0.00 in0.0 mm 0.04 in1.0 mm
01:59 AM 49.3°F9.6°C 47.3°F8.5°C 93% 0.9 mph WSW1.4 kmh WSW 3.0 mph4.8 kmh 29.55 in1000.7 mb 0.00 in0.0 mm 0.00 in0.0 mm 0.04 in1.0 mm
01:53 AM 49.5°F9.7°C 47.5°F8.6°C 93% 0.9 mph SW1.4 kmh SW 0.9 mph1.4 kmh 29.55 in1000.7 mb 0.00 in0.0 mm 0.00 in0.0 mm 0.04 in1.0 mm
01:48 AM 49.5°F9.7°C 47.5°F8.6°C 93% 0.9 mph SW1.4 kmh SW 2.0 mph3.2 kmh 29.55 in1000.7 mb 0.00 in0.0 mm 0.00 in0.0 mm 0.04 in1.0 mm
01:42 AM 49.6°F9.8°C 47.7°F8.7°C 93% 0.9 mph WSW1.4 kmh WSW 3.0 mph4.8 kmh 29.54 in1000.3 mb 0.00 in0.0 mm 0.00 in0.0 mm 0.04 in1.0 mm
01:37 AM 49.5°F9.7°C 47.3°F8.5°C 92% 0.9 mph WSW1.4 kmh WSW 2.0 mph3.2 kmh 29.55 in1000.7 mb 0.00 in0.0 mm 0.00 in0.0 mm 0.04 in1.0 mm
01:31 AM 50.0°F10.0°C 47.5°F8.6°C 91% 0.9 mph W1.4 kmh W 3.0 mph4.8 kmh 29.55 in1000.7 mb 0.00 in0.0 mm 0.00 in0.0 mm 0.04 in1.0 mm
01:25 AM 49.8°F9.9°C 47.3°F8.5°C 91% 0.9 mph WSW1.4 kmh WSW 2.0 mph3.2 kmh 29.55 in1000.7 mb 0.00 in0.0 mm 0.00 in0.0 mm 0.04 in1.0 mm
01:20 AM 50.2°F10.1°C 47.3°F8.5°C 90% 0.9 mph WSW1.4 kmh WSW 3.0 mph4.8 kmh 29.54 in1000.3 mb 0.00 in0.0 mm 0.00 in0.0 mm 0.04 in1.0 mm
01:14 AM 49.8°F9.9°C 47.3°F8.5°C 91% 0.9 mph WNW1.4 kmh WNW 3.0 mph4.8 kmh 29.55 in1000.7 mb 0.01 in0.3 mm 0.00 in0.0 mm 0.04 in1.0 mm
01:09 AM 49.6°F9.8°C 46.8°F8.2°C 90% 0.9 mph WNW1.4 kmh WNW 2.0 mph3.2 kmh 29.55 in1000.7 mb 0.01 in0.3 mm 0.00 in0.0 mm 0.04 in1.0 mm
01:03 AM 50.0°F10.0°C 47.5°F8.6°C 91% 0.9 mph WNW1.4 kmh WNW 0.9 mph1.4 kmh 29.55 in1000.7 mb 0.02 in0.5 mm 0.00 in0.0 mm 0.04 in1.0 mm
12:58 AM 49.8°F9.9°C 46.9°F8.3°C 90% 0.9 mph SW1.4 kmh SW 3.0 mph4.8 kmh 29.54 in1000.3 mb 0.03 in0.8 mm 0.00 in0.0 mm 0.04 in1.0 mm
12:52 AM 49.6°F9.8°C 46.8°F8.2°C 90% 2.0 mph S3.2 kmh S 2.9 mph4.7 kmh 29.54 in1000.3 mb 0.03 in0.8 mm 0.00 in0.0 mm 0.04 in1.0 mm
12:47 AM 49.6°F9.8°C 46.8°F8.2°C 90% 2.0 mph SSW3.2 kmh SSW 2.0 mph3.2 kmh 29.54 in1000.3 mb 0.03 in0.8 mm 0.00 in0.0 mm 0.04 in1.0 mm
12:40 AM 50.0°F10.0°C 46.9°F8.3°C 89% 0.9 mph SSE1.4 kmh SSE 4.0 mph6.4 kmh 29.54 in1000.3 mb 0.03 in0.8 mm 0.00 in0.0 mm 0.04 in1.0 mm
12:35 AM 50.0°F10.0°C 47.1°F8.4°C 90% 0.9 mph SSE1.4 kmh SSE 0.9 mph1.4 kmh 29.54 in1000.3 mb 0.03 in0.8 mm 0.00 in0.0 mm 0.04 in1.0 mm
12:30 AM 50.0°F10.0°C 47.1°F8.4°C 90% 0.9 mph ENE1.4 kmh ENE 3.0 mph4.8 kmh 29.54 in1000.3 mb 0.03 in0.8 mm 0.00 in0.0 mm 0.04 in1.0 mm
12:25 AM 50.2°F10.1°C 47.3°F8.5°C 90% 0.9 mph SE1.4 kmh SE 2.0 mph3.2 kmh 29.54 in1000.3 mb 0.04 in1.0 mm 0.00 in0.0 mm 0.04 in1.0 mm
12:19 AM 50.2°F10.1°C 46.8°F8.2°C 88% 2.9 mph SSW4.7 kmh SSW 2.9 mph4.7 kmh 29.54 in1000.3 mb 0.04 in1.0 mm 0.10 in2.5 mm 0.04 in1.0 mm
12:13 AM 50.4°F10.2°C 46.9°F8.3°C 88% 6.0 mph WSW9.7 kmh WSW 11.0 mph17.7 kmh 29.54 in1000.3 mb 0.03 in0.8 mm 0.00 in0.0 mm 0.03 in0.8 mm
12:08 AM 50.4°F10.2°C 46.4°F8.0°C 86% 6.9 mph WSW11.1 kmh WSW 10.1 mph16.3 kmh 29.54 in1000.3 mb 0.03 in0.8 mm 0.12 in3.0 mm 0.03 in0.8 mm
12:03 AM 50.5°F10.3°C 46.2°F7.9°C 85% 6.9 mph SW11.1 kmh SW 14.0 mph22.5 kmh 29.54 in1000.3 mb 0.02 in0.5 mm 0.40 in10.2 mm 0.02 in0.5 mm